sensor_id;sensor_type;location;lat;lon;timestamp;P1;durP1;ratioP1;P2;durP2;ratioP2
36715;SDS011;22699;51.034;3.730;2022-08-11T00:00:40;4.93;;;2.72;;
36715;SDS011;22699;51.034;3.730;2022-08-11T00:03:09;3.90;;;2.40;;
36715;SDS011;22699;51.034;3.730;2022-08-11T00:05:46;6.40;;;2.92;;
36715;SDS011;22699;51.034;3.730;2022-08-11T00:08:22;5.25;;;3.20;;
36715;SDS011;22699;51.034;3.730;2022-08-11T00:10:50;3.13;;;2.65;;
36715;SDS011;22699;51.034;3.730;2022-08-11T00:13:38;3.88;;;2.40;;
36715;SDS011;22699;51.034;3.730;2022-08-11T00:16:17;7.28;;;3.08;;
36715;SDS011;22699;51.034;3.730;2022-08-11T00:18:48;4.15;;;2.55;;
36715;SDS011;22699;51.034;3.730;2022-08-11T00:21:15;9.95;;;2.95;;
36715;SDS011;22699;51.034;3.730;2022-08-11T00:23:51;7.78;;;2.92;;
36715;SDS011;22699;51.034;3.730;2022-08-11T00:26:22;3.97;;;2.80;;
36715;SDS011;22699;51.034;3.730;2022-08-11T00:28:49;2.95;;;2.63;;
36715;SDS011;22699;51.034;3.730;2022-08-11T00:31:21;3.65;;;2.35;;
36715;SDS011;22699;51.034;3.730;2022-08-11T00:34:07;4.05;;;2.80;;
36715;SDS011;22699;51.034;3.730;2022-08-11T00:39:31;3.67;;;2.50;;
36715;SDS011;22699;51.034;3.730;2022-08-11T00:44:51;4.35;;;2.83;;
36715;SDS011;22699;51.034;3.730;2022-08-11T00:50:17;4.35;;;2.70;;
36715;SDS011;22699;51.034;3.730;2022-08-11T00:53:24;8.20;;;3.28;;
36715;SDS011;22699;51.034;3.730;2022-08-11T01:12:13;4.85;;;3.10;;
36715;SDS011;22699;51.034;3.730;2022-08-11T01:34:20;6.05;;;3.10;;
36715;SDS011;22699;51.034;3.730;2022-08-11T01:37:24;5.47;;;3.22;;
36715;SDS011;22699;51.034;3.730;2022-08-11T01:46:03;5.72;;;3.10;;
36715;SDS011;22699;51.034;3.730;2022-08-11T01:48:43;4.82;;;2.90;;
36715;SDS011;22699;51.034;3.730;2022-08-11T01:51:22;5.75;;;3.15;;
36715;SDS011;22699;51.034;3.730;2022-08-11T01:54:04;5.80;;;3.42;;
36715;SDS011;22699;51.034;3.730;2022-08-11T01:56:45;4.97;;;2.92;;
36715;SDS011;22699;51.034;3.730;2022-08-11T02:23:16;6.95;;;3.33;;
36715;SDS011;22699;51.034;3.730;2022-08-11T02:26:13;6.40;;;3.70;;
36715;SDS011;22699;51.034;3.730;2022-08-11T02:28:58;5.65;;;3.22;;
36715;SDS011;22699;51.034;3.730;2022-08-11T02:31:45;4.07;;;3.20;;
36715;SDS011;22699;51.034;3.730;2022-08-11T02:47:47;4.05;;;3.33;;
36715;SDS011;22699;51.034;3.730;2022-08-11T02:53:26;6.63;;;4.13;;
36715;SDS011;22699;51.034;3.730;2022-08-11T02:56:05;4.50;;;3.45;;
36715;SDS011;22699;51.034;3.730;2022-08-11T02:58:39;4.25;;;3.35;;
36715;SDS011;22699;51.034;3.730;2022-08-11T03:01:44;4.10;;;3.25;;
36715;SDS011;22699;51.034;3.730;2022-08-11T03:04:19;4.30;;;3.55;;
36715;SDS011;22699;51.034;3.730;2022-08-11T03:06:58;3.67;;;3.20;;
36715;SDS011;22699;51.034;3.730;2022-08-11T03:12:07;5.95;;;3.90;;
36715;SDS011;22699;51.034;3.730;2022-08-11T03:20:43;6.03;;;3.67;;
36715;SDS011;22699;51.034;3.730;2022-08-11T03:26:06;5.00;;;3.88;;
36715;SDS011;22699;51.034;3.730;2022-08-11T03:28:44;5.63;;;3.75;;
36715;SDS011;22699;51.034;3.730;2022-08-11T03:33:57;5.90;;;3.40;;
36715;SDS011;22699;51.034;3.730;2022-08-11T03:42:32;8.02;;;4.03;;
36715;SDS011;22699;51.034;3.730;2022-08-11T03:45:18;6.45;;;4.13;;
36715;SDS011;22699;51.034;3.730;2022-08-11T03:54:05;7.60;;;4.50;;
36715;SDS011;22699;51.034;3.730;2022-08-11T04:02:25;6.93;;;4.43;;
36715;SDS011;22699;51.034;3.730;2022-08-11T04:40:39;15.95;;;5.10;;
36715;SDS011;22699;51.034;3.730;2022-08-11T04:52:47;6.35;;;4.10;;
36715;SDS011;22699;51.034;3.730;2022-08-11T04:58:43;4.95;;;4.28;;
36715;SDS011;22699;51.034;3.730;2022-08-11T05:13:33;7.78;;;4.50;;
36715;SDS011;22699;51.034;3.730;2022-08-11T05:16:30;8.63;;;4.32;;
36715;SDS011;22699;51.034;3.730;2022-08-11T05:19:19;7.55;;;5.03;;
36715;SDS011;22699;51.034;3.730;2022-08-11T05:22:07;8.18;;;4.78;;
36715;SDS011;22699;51.034;3.730;2022-08-11T05:24:56;6.93;;;4.75;;
36715;SDS011;22699;51.034;3.730;2022-08-11T05:30:53;9.80;;;4.78;;
36715;SDS011;22699;51.034;3.730;2022-08-11T05:33:46;8.18;;;4.97;;
36715;SDS011;22699;51.034;3.730;2022-08-11T05:36:43;7.53;;;5.13;;
36715;SDS011;22699;51.034;3.730;2022-08-11T05:39:15;5.93;;;4.70;;
36715;SDS011;22699;51.034;3.730;2022-08-11T05:42:05;6.85;;;4.85;;
36715;SDS011;22699;51.034;3.730;2022-08-11T05:44:52;8.85;;;5.20;;
36715;SDS011;22699;51.034;3.730;2022-08-11T05:47:40;9.10;;;5.07;;
36715;SDS011;22699;51.034;3.730;2022-08-11T05:50:25;8.95;;;5.32;;
36715;SDS011;22699;51.034;3.730;2022-08-11T05:53:13;10.65;;;5.32;;
36715;SDS011;22699;51.034;3.730;2022-08-11T05:55:58;10.32;;;5.95;;
36715;SDS011;22699;51.034;3.730;2022-08-11T05:58:46;10.90;;;5.15;;
36715;SDS011;22699;51.034;3.730;2022-08-11T06:01:28;13.70;;;6.05;;
36715;SDS011;22699;51.034;3.730;2022-08-11T06:03:57;11.25;;;5.22;;
36715;SDS011;22699;51.034;3.730;2022-08-11T06:09:33;7.95;;;5.20;;
36715;SDS011;22699;51.034;3.730;2022-08-11T06:12:05;14.05;;;5.88;;
36715;SDS011;22699;51.034;3.730;2022-08-11T06:14:35;19.05;;;6.47;;
36715;SDS011;22699;51.034;3.730;2022-08-11T06:17:07;12.68;;;5.45;;
36715;SDS011;22699;51.034;3.730;2022-08-11T06:19:44;9.07;;;5.40;;
36715;SDS011;22699;51.034;3.730;2022-08-11T06:22:18;11.73;;;5.15;;
36715;SDS011;22699;51.034;3.730;2022-08-11T06:24:50;12.07;;;5.60;;
36715;SDS011;22699;51.034;3.730;2022-08-11T06:27:19;7.18;;;4.78;;
36715;SDS011;22699;51.034;3.730;2022-08-11T06:29:49;6.97;;;5.38;;
36715;SDS011;22699;51.034;3.730;2022-08-11T06:32:19;7.60;;;5.38;;
36715;SDS011;22699;51.034;3.730;2022-08-11T06:39:57;8.98;;;5.07;;
36715;SDS011;22699;51.034;3.730;2022-08-11T06:47:46;10.23;;;5.20;;
36715;SDS011;22699;51.034;3.730;2022-08-11T06:50:17;8.77;;;5.43;;
36715;SDS011;22699;51.034;3.730;2022-08-11T06:53:04;10.15;;;5.07;;
36715;SDS011;22699;51.034;3.730;2022-08-11T06:55:32;8.98;;;5.32;;
36715;SDS011;22699;51.034;3.730;2022-08-11T06:58:19;10.75;;;5.22;;
36715;SDS011;22699;51.034;3.730;2022-08-11T07:01:12;9.93;;;4.82;;
36715;SDS011;22699;51.034;3.730;2022-08-11T07:03:47;9.52;;;5.13;;
36715;SDS011;22699;51.034;3.730;2022-08-11T07:12:43;8.77;;;4.95;;
36715;SDS011;22699;51.034;3.730;2022-08-11T07:15:32;6.28;;;4.15;;
36715;SDS011;22699;51.034;3.730;2022-08-11T07:18:10;14.25;;;5.85;;
36715;SDS011;22699;51.034;3.730;2022-08-11T07:21:09;13.52;;;4.97;;
36715;SDS011;22699;51.034;3.730;2022-08-11T07:24:08;9.68;;;4.13;;
36715;SDS011;22699;51.034;3.730;2022-08-11T07:27:08;10.50;;;4.80;;
36715;SDS011;22699;51.034;3.730;2022-08-11T07:29:57;10.73;;;4.30;;
36715;SDS011;22699;51.034;3.730;2022-08-11T07:32:29;12.25;;;4.28;;
36715;SDS011;22699;51.034;3.730;2022-08-11T07:35:12;9.57;;;4.03;;
36715;SDS011;22699;51.034;3.730;2022-08-11T07:37:46;14.60;;;4.13;;
36715;SDS011;22699;51.034;3.730;2022-08-11T07:40:24;4.93;;;2.88;;
36715;SDS011;22699;51.034;3.730;2022-08-11T07:45:22;9.73;;;3.60;;
36715;SDS011;22699;51.034;3.730;2022-08-11T07:48:09;7.20;;;2.83;;
36715;SDS011;22699;51.034;3.730;2022-08-11T07:50:55;5.80;;;2.63;;
36715;SDS011;22699;51.034;3.730;2022-08-11T07:53:41;10.20;;;3.10;;
36715;SDS011;22699;51.034;3.730;2022-08-11T07:56:08;9.77;;;2.85;;
36715;SDS011;22699;51.034;3.730;2022-08-11T07:58:35;6.78;;;3.00;;
36715;SDS011;22699;51.034;3.730;2022-08-11T08:01:21;7.07;;;2.60;;
36715;SDS011;22699;51.034;3.730;2022-08-11T08:04:09;7.35;;;2.40;;
36715;SDS011;22699;51.034;3.730;2022-08-11T08:06:56;5.78;;;2.63;;
36715;SDS011;22699;51.034;3.730;2022-08-11T08:09:43;10.02;;;2.67;;
36715;SDS011;22699;51.034;3.730;2022-08-11T08:12:28;8.48;;;2.80;;
36715;SDS011;22699;51.034;3.730;2022-08-11T08:15:14;7.68;;;2.83;;
36715;SDS011;22699;51.034;3.730;2022-08-11T08:18:02;6.78;;;2.70;;
36715;SDS011;22699;51.034;3.730;2022-08-11T08:20:31;8.80;;;2.30;;
36715;SDS011;22699;51.034;3.730;2022-08-11T08:23:03;10.55;;;2.88;;
36715;SDS011;22699;51.034;3.730;2022-08-11T08:25:32;7.07;;;2.33;;
36715;SDS011;22699;51.034;3.730;2022-08-11T08:28:03;5.38;;;2.05;;
36715;SDS011;22699;51.034;3.730;2022-08-11T08:30:31;8.35;;;1.90;;
36715;SDS011;22699;51.034;3.730;2022-08-11T08:33:24;8.80;;;2.20;;
36715;SDS011;22699;51.034;3.730;2022-08-11T08:35:52;6.25;;;1.80;;
36715;SDS011;22699;51.034;3.730;2022-08-11T08:38:36;3.67;;;2.05;;
36715;SDS011;22699;51.034;3.730;2022-08-11T08:41:03;4.68;;;2.30;;
36715;SDS011;22699;51.034;3.730;2022-08-11T08:43:31;6.35;;;2.15;;
36715;SDS011;22699;51.034;3.730;2022-08-11T08:45:59;3.95;;;1.98;;
36715;SDS011;22699;51.034;3.730;2022-08-11T08:48:25;6.95;;;2.28;;
36715;SDS011;22699;51.034;3.730;2022-08-11T08:51:01;4.25;;;2.00;;
36715;SDS011;22699;51.034;3.730;2022-08-11T08:53:50;16.45;;;3.00;;
36715;SDS011;22699;51.034;3.730;2022-08-11T08:56:19;9.98;;;2.90;;
36715;SDS011;22699;51.034;3.730;2022-08-11T08:58:50;5.80;;;2.00;;
36715;SDS011;22699;51.034;3.730;2022-08-11T09:01:16;10.23;;;2.47;;
36715;SDS011;22699;51.034;3.730;2022-08-11T09:03:46;4.00;;;2.22;;
36715;SDS011;22699;51.034;3.730;2022-08-11T09:06:12;4.75;;;1.70;;
36715;SDS011;22699;51.034;3.730;2022-08-11T09:08:43;4.60;;;2.15;;
36715;SDS011;22699;51.034;3.730;2022-08-11T09:11:09;5.72;;;1.90;;
36715;SDS011;22699;51.034;3.730;2022-08-11T09:13:55;10.95;;;2.53;;
36715;SDS011;22699;51.034;3.730;2022-08-11T09:16:21;9.68;;;1.95;;
36715;SDS011;22699;51.034;3.730;2022-08-11T09:18:49;5.32;;;2.20;;
36715;SDS011;22699;51.034;3.730;2022-08-11T09:21:17;8.98;;;2.40;;
36715;SDS011;22699;51.034;3.730;2022-08-11T09:23:49;4.80;;;1.80;;
36715;SDS011;22699;51.034;3.730;2022-08-11T09:26:35;3.50;;;1.60;;
36715;SDS011;22699;51.034;3.730;2022-08-11T09:29:22;9.60;;;2.57;;
36715;SDS011;22699;51.034;3.730;2022-08-11T09:31:48;2.75;;;1.70;;
36715;SDS011;22699;51.034;3.730;2022-08-11T09:34:14;9.27;;;2.30;;
36715;SDS011;22699;51.034;3.730;2022-08-11T09:36:42;8.48;;;2.40;;
36715;SDS011;22699;51.034;3.730;2022-08-11T09:39:28;9.05;;;2.20;;
36715;SDS011;22699;51.034;3.730;2022-08-11T09:42:14;9.83;;;2.90;;
36715;SDS011;22699;51.034;3.730;2022-08-11T09:44:41;6.22;;;2.17;;
36715;SDS011;22699;51.034;3.730;2022-08-11T09:47:18;5.10;;;1.92;;
36715;SDS011;22699;51.034;3.730;2022-08-11T09:49:46;8.82;;;2.20;;
36715;SDS011;22699;51.034;3.730;2022-08-11T09:52:13;5.40;;;2.03;;
36715;SDS011;22699;51.034;3.730;2022-08-11T09:54:40;7.83;;;2.10;;
36715;SDS011;22699;51.034;3.730;2022-08-11T09:57:07;6.27;;;2.03;;
36715;SDS011;22699;51.034;3.730;2022-08-11T09:59:51;5.82;;;2.33;;
36715;SDS011;22699;51.034;3.730;2022-08-11T10:02:17;6.43;;;1.95;;
36715;SDS011;22699;51.034;3.730;2022-08-11T10:04:50;8.80;;;2.10;;
36715;SDS011;22699;51.034;3.730;2022-08-11T10:07:18;6.63;;;1.95;;
36715;SDS011;22699;51.034;3.730;2022-08-11T10:12:32;8.63;;;1.90;;
36715;SDS011;22699;51.034;3.730;2022-08-11T10:15:02;3.35;;;1.90;;
36715;SDS011;22699;51.034;3.730;2022-08-11T10:17:52;11.82;;;2.40;;
36715;SDS011;22699;51.034;3.730;2022-08-11T10:20:40;6.65;;;2.35;;
36715;SDS011;22699;51.034;3.730;2022-08-11T10:23:18;4.50;;;2.07;;
36715;SDS011;22699;51.034;3.730;2022-08-11T10:28:43;6.97;;;2.10;;
36715;SDS011;22699;51.034;3.730;2022-08-11T10:31:09;3.42;;;2.10;;
36715;SDS011;22699;51.034;3.730;2022-08-11T10:33:54;5.05;;;2.17;;
36715;SDS011;22699;51.034;3.730;2022-08-11T10:36:35;5.35;;;2.08;;
36715;SDS011;22699;51.034;3.730;2022-08-11T10:39:14;6.43;;;1.80;;
36715;SDS011;22699;51.034;3.730;2022-08-11T10:41:43;5.18;;;2.00;;
36715;SDS011;22699;51.034;3.730;2022-08-11T10:44:31;5.75;;;2.03;;
36715;SDS011;22699;51.034;3.730;2022-08-11T10:47:04;3.13;;;1.77;;
36715;SDS011;22699;51.034;3.730;2022-08-11T10:49:51;6.30;;;2.25;;
36715;SDS011;22699;51.034;3.730;2022-08-11T10:52:38;5.05;;;2.00;;
36715;SDS011;22699;51.034;3.730;2022-08-11T10:55:23;5.32;;;1.92;;
36715;SDS011;22699;51.034;3.730;2022-08-11T10:58:09;4.68;;;1.98;;
36715;SDS011;22699;51.034;3.730;2022-08-11T11:00:55;3.63;;;1.92;;
36715;SDS011;22699;51.034;3.730;2022-08-11T11:03:26;4.13;;;1.93;;
36715;SDS011;22699;51.034;3.730;2022-08-11T11:05:54;3.50;;;1.40;;
36715;SDS011;22699;51.034;3.730;2022-08-11T11:08:28;3.40;;;2.00;;
36715;SDS011;22699;51.034;3.730;2022-08-11T11:11:17;6.78;;;2.10;;
36715;SDS011;22699;51.034;3.730;2022-08-11T11:16:36;7.15;;;2.13;;
36715;SDS011;22699;51.034;3.730;2022-08-11T11:19:23;5.55;;;2.25;;
36715;SDS011;22699;51.034;3.730;2022-08-11T11:21:53;5.30;;;1.90;;
36715;SDS011;22699;51.034;3.730;2022-08-11T11:24:54;4.20;;;2.10;;
36715;SDS011;22699;51.034;3.730;2022-08-11T11:27:37;5.50;;;2.00;;
36715;SDS011;22699;51.034;3.730;2022-08-11T11:30:14;4.38;;;1.83;;
36715;SDS011;22699;51.034;3.730;2022-08-11T11:32:55;6.68;;;2.60;;
36715;SDS011;22699;51.034;3.730;2022-08-11T11:38:44;7.00;;;2.40;;
36715;SDS011;22699;51.034;3.730;2022-08-11T11:41:10;3.47;;;2.15;;
36715;SDS011;22699;51.034;3.730;2022-08-11T11:43:49;7.30;;;2.30;;
36715;SDS011;22699;51.034;3.730;2022-08-11T11:46:15;2.90;;;2.00;;
36715;SDS011;22699;51.034;3.730;2022-08-11T11:48:42;5.97;;;2.45;;
36715;SDS011;22699;51.034;3.730;2022-08-11T11:51:08;5.20;;;2.60;;
36715;SDS011;22699;51.034;3.730;2022-08-11T11:53:41;5.90;;;2.20;;
36715;SDS011;22699;51.034;3.730;2022-08-11T11:56:09;5.18;;;2.33;;
36715;SDS011;22699;51.034;3.730;2022-08-11T11:58:37;5.35;;;2.30;;
36715;SDS011;22699;51.034;3.730;2022-08-11T12:01:22;7.25;;;2.50;;
36715;SDS011;22699;51.034;3.730;2022-08-11T12:03:51;3.17;;;1.98;;
36715;SDS011;22699;51.034;3.730;2022-08-11T12:06:18;6.70;;;2.10;;
36715;SDS011;22699;51.034;3.730;2022-08-11T12:08:47;7.65;;;2.47;;
36715;SDS011;22699;51.034;3.730;2022-08-11T12:11:14;5.90;;;2.58;;
36715;SDS011;22699;51.034;3.730;2022-08-11T12:14:01;4.60;;;2.25;;
36715;SDS011;22699;51.034;3.730;2022-08-11T12:16:30;4.57;;;1.90;;
36715;SDS011;22699;51.034;3.730;2022-08-11T12:19:02;6.80;;;2.13;;
36715;SDS011;22699;51.034;3.730;2022-08-11T12:21:30;3.20;;;1.90;;
36715;SDS011;22699;51.034;3.730;2022-08-11T12:23:56;4.97;;;2.50;;
36715;SDS011;22699;51.034;3.730;2022-08-11T12:26:43;3.67;;;2.30;;
36715;SDS011;22699;51.034;3.730;2022-08-11T12:29:19;4.70;;;2.20;;
36715;SDS011;22699;51.034;3.730;2022-08-11T12:31:51;6.88;;;2.42;;
36715;SDS011;22699;51.034;3.730;2022-08-11T12:34:18;8.43;;;2.25;;
36715;SDS011;22699;51.034;3.730;2022-08-11T12:37:00;4.35;;;2.33;;
36715;SDS011;22699;51.034;3.730;2022-08-11T12:39:33;2.83;;;2.30;;
36715;SDS011;22699;51.034;3.730;2022-08-11T12:42:20;7.10;;;2.33;;
36715;SDS011;22699;51.034;3.730;2022-08-11T12:45:15;3.72;;;2.42;;
36715;SDS011;22699;51.034;3.730;2022-08-11T12:47:52;6.57;;;3.70;;
36715;SDS011;22699;51.034;3.730;2022-08-11T12:50:59;3.15;;;2.38;;
36715;SDS011;22699;51.034;3.730;2022-08-11T12:53:51;10.25;;;3.05;;
36715;SDS011;22699;51.034;3.730;2022-08-11T12:56:23;6.68;;;2.08;;
36715;SDS011;22699;51.034;3.730;2022-08-11T12:59:13;2.78;;;2.10;;
36715;SDS011;22699;51.034;3.730;2022-08-11T13:01:58;3.05;;;2.22;;
36715;SDS011;22699;51.034;3.730;2022-08-11T13:04:43;7.38;;;2.50;;
36715;SDS011;22699;51.034;3.730;2022-08-11T13:07:19;6.07;;;2.33;;
36715;SDS011;22699;51.034;3.730;2022-08-11T13:09:46;6.90;;;2.10;;
36715;SDS011;22699;51.034;3.730;2022-08-11T13:12:13;6.65;;;2.08;;
36715;SDS011;22699;51.034;3.730;2022-08-11T13:14:58;4.40;;;2.05;;
36715;SDS011;22699;51.034;3.730;2022-08-11T13:17:25;4.50;;;2.15;;
36715;SDS011;22699;51.034;3.730;2022-08-11T13:19:53;4.18;;;2.53;;
36715;SDS011;22699;51.034;3.730;2022-08-11T13:22:21;3.40;;;1.98;;
36715;SDS011;22699;51.034;3.730;2022-08-11T13:24:49;6.03;;;2.10;;
36715;SDS011;22699;51.034;3.730;2022-08-11T13:27:19;4.40;;;2.13;;
36715;SDS011;22699;51.034;3.730;2022-08-11T13:29:45;7.35;;;2.67;;
36715;SDS011;22699;51.034;3.730;2022-08-11T13:32:13;5.50;;;2.70;;
36715;SDS011;22699;51.034;3.730;2022-08-11T13:34:40;3.42;;;2.20;;
36715;SDS011;22699;51.034;3.730;2022-08-11T13:37:08;6.60;;;2.50;;
36715;SDS011;22699;51.034;3.730;2022-08-11T13:39:36;7.28;;;2.55;;
36715;SDS011;22699;51.034;3.730;2022-08-11T13:42:08;3.15;;;2.30;;
36715;SDS011;22699;51.034;3.730;2022-08-11T13:44:34;5.50;;;2.28;;
36715;SDS011;22699;51.034;3.730;2022-08-11T13:47:03;6.35;;;2.20;;
36715;SDS011;22699;51.034;3.730;2022-08-11T13:49:31;4.63;;;2.80;;
36715;SDS011;22699;51.034;3.730;2022-08-11T13:52:03;4.50;;;2.50;;
36715;SDS011;22699;51.034;3.730;2022-08-11T13:57:09;5.88;;;2.35;;
36715;SDS011;22699;51.034;3.730;2022-08-11T14:02:14;6.70;;;2.20;;
36715;SDS011;22699;51.034;3.730;2022-08-11T14:04:49;9.45;;;2.70;;
36715;SDS011;22699;51.034;3.730;2022-08-11T14:07:19;4.30;;;2.72;;
36715;SDS011;22699;51.034;3.730;2022-08-11T14:09:47;3.95;;;2.22;;
36715;SDS011;22699;51.034;3.730;2022-08-11T14:12:22;2.05;;;1.77;;
36715;SDS011;22699;51.034;3.730;2022-08-11T14:15:18;6.35;;;2.10;;
36715;SDS011;22699;51.034;3.730;2022-08-11T14:18:08;4.00;;;2.63;;
36715;SDS011;22699;51.034;3.730;2022-08-11T14:20:53;5.95;;;2.47;;
36715;SDS011;22699;51.034;3.730;2022-08-11T14:23:49;2.72;;;2.28;;
36715;SDS011;22699;51.034;3.730;2022-08-11T14:26:19;6.28;;;2.40;;
36715;SDS011;22699;51.034;3.730;2022-08-11T14:29:03;4.10;;;2.70;;
36715;SDS011;22699;51.034;3.730;2022-08-11T14:31:47;2.67;;;1.92;;
36715;SDS011;22699;51.034;3.730;2022-08-11T14:34:17;5.05;;;2.20;;
36715;SDS011;22699;51.034;3.730;2022-08-11T14:36:50;5.80;;;2.55;;
36715;SDS011;22699;51.034;3.730;2022-08-11T14:39:18;5.72;;;2.55;;
36715;SDS011;22699;51.034;3.730;2022-08-11T14:41:59;5.97;;;2.20;;
36715;SDS011;22699;51.034;3.730;2022-08-11T14:44:48;9.38;;;2.65;;
36715;SDS011;22699;51.034;3.730;2022-08-11T14:50:28;2.45;;;1.98;;
36715;SDS011;22699;51.034;3.730;2022-08-11T14:53:08;4.45;;;2.00;;
36715;SDS011;22699;51.034;3.730;2022-08-11T14:55:37;2.92;;;1.92;;
36715;SDS011;22699;51.034;3.730;2022-08-11T14:58:27;3.78;;;2.05;;
36715;SDS011;22699;51.034;3.730;2022-08-11T15:00:55;3.75;;;2.33;;
36715;SDS011;22699;51.034;3.730;2022-08-11T15:03:23;5.28;;;2.42;;
36715;SDS011;22699;51.034;3.730;2022-08-11T15:05:52;3.92;;;2.28;;
36715;SDS011;22699;51.034;3.730;2022-08-11T15:11:07;2.80;;;2.30;;
36715;SDS011;22699;51.034;3.730;2022-08-11T15:13:54;6.68;;;2.72;;
36715;SDS011;22699;51.034;3.730;2022-08-11T15:16:24;4.00;;;2.25;;
36715;SDS011;22699;51.034;3.730;2022-08-11T15:19:10;9.05;;;2.80;;
36715;SDS011;22699;51.034;3.730;2022-08-11T15:21:37;3.45;;;2.17;;
36715;SDS011;22699;51.034;3.730;2022-08-11T15:24:22;6.60;;;2.22;;
36715;SDS011;22699;51.034;3.730;2022-08-11T15:26:48;5.05;;;2.22;;
36715;SDS011;22699;51.034;3.730;2022-08-11T15:29:33;6.90;;;2.17;;
36715;SDS011;22699;51.034;3.730;2022-08-11T15:32:21;3.75;;;2.30;;
36715;SDS011;22699;51.034;3.730;2022-08-11T15:35:08;5.70;;;2.10;;
36715;SDS011;22699;51.034;3.730;2022-08-11T15:37:54;3.67;;;2.13;;
36715;SDS011;22699;51.034;3.730;2022-08-11T15:40:23;8.63;;;2.33;;
36715;SDS011;22699;51.034;3.730;2022-08-11T15:46:32;6.75;;;2.60;;
36715;SDS011;22699;51.034;3.730;2022-08-11T15:49:07;3.70;;;1.92;;
36715;SDS011;22699;51.034;3.730;2022-08-11T15:54:39;2.92;;;2.08;;
36715;SDS011;22699;51.034;3.730;2022-08-11T15:57:07;3.67;;;2.20;;
36715;SDS011;22699;51.034;3.730;2022-08-11T15:59:54;3.35;;;1.95;;
36715;SDS011;22699;51.034;3.730;2022-08-11T16:02:40;3.95;;;1.98;;
36715;SDS011;22699;51.034;3.730;2022-08-11T16:05:26;3.45;;;2.00;;
36715;SDS011;22699;51.034;3.730;2022-08-11T16:07:53;2.92;;;1.90;;
36715;SDS011;22699;51.034;3.730;2022-08-11T16:10:20;5.53;;;2.17;;
36715;SDS011;22699;51.034;3.730;2022-08-11T16:15:33;6.45;;;2.08;;
36715;SDS011;22699;51.034;3.730;2022-08-11T16:18:21;4.45;;;1.90;;
36715;SDS011;22699;51.034;3.730;2022-08-11T16:21:04;6.10;;;2.28;;
36715;SDS011;22699;51.034;3.730;2022-08-11T16:23:34;2.67;;;1.98;;
36715;SDS011;22699;51.034;3.730;2022-08-11T16:26:04;5.50;;;2.27;;
36715;SDS011;22699;51.034;3.730;2022-08-11T16:28:30;4.47;;;2.15;;
36715;SDS011;22699;51.034;3.730;2022-08-11T16:31:01;4.10;;;2.17;;
36715;SDS011;22699;51.034;3.730;2022-08-11T16:33:29;4.07;;;2.25;;
36715;SDS011;22699;51.034;3.730;2022-08-11T16:35:55;4.10;;;2.05;;
36715;SDS011;22699;51.034;3.730;2022-08-11T16:38:41;4.80;;;2.60;;
36715;SDS011;22699;51.034;3.730;2022-08-11T16:44:06;3.35;;;2.00;;
36715;SDS011;22699;51.034;3.730;2022-08-11T16:46:54;5.13;;;2.23;;
36715;SDS011;22699;51.034;3.730;2022-08-11T16:49:33;5.10;;;2.20;;
36715;SDS011;22699;51.034;3.730;2022-08-11T16:52:10;6.50;;;2.50;;
36715;SDS011;22699;51.034;3.730;2022-08-11T16:54:38;6.15;;;2.13;;
36715;SDS011;22699;51.034;3.730;2022-08-11T16:57:09;5.22;;;2.03;;
36715;SDS011;22699;51.034;3.730;2022-08-11T17:00:15;3.58;;;2.40;;
36715;SDS011;22699;51.034;3.730;2022-08-11T17:02:52;4.35;;;2.17;;
36715;SDS011;22699;51.034;3.730;2022-08-11T17:05:58;3.78;;;2.20;;
36715;SDS011;22699;51.034;3.730;2022-08-11T17:09:02;6.13;;;2.20;;
36715;SDS011;22699;51.034;3.730;2022-08-11T17:11:52;3.15;;;2.33;;
36715;SDS011;22699;51.034;3.730;2022-08-11T17:14:41;4.25;;;2.10;;
36715;SDS011;22699;51.034;3.730;2022-08-11T17:20:01;4.68;;;2.80;;
36715;SDS011;22699;51.034;3.730;2022-08-11T17:22:37;6.00;;;2.60;;
36715;SDS011;22699;51.034;3.730;2022-08-11T17:25:23;5.78;;;2.25;;
36715;SDS011;22699;51.034;3.730;2022-08-11T17:27:52;6.53;;;2.15;;
36715;SDS011;22699;51.034;3.730;2022-08-11T17:30:22;4.43;;;2.35;;
36715;SDS011;22699;51.034;3.730;2022-08-11T17:33:11;3.83;;;2.30;;
36715;SDS011;22699;51.034;3.730;2022-08-11T17:35:58;2.60;;;1.75;;
36715;SDS011;22699;51.034;3.730;2022-08-11T17:38:35;2.75;;;2.10;;
36715;SDS011;22699;51.034;3.730;2022-08-11T17:41:05;3.83;;;2.25;;
36715;SDS011;22699;51.034;3.730;2022-08-11T17:43:58;3.70;;;2.00;;
36715;SDS011;22699;51.034;3.730;2022-08-11T17:46:52;6.22;;;1.90;;
36715;SDS011;22699;51.034;3.730;2022-08-11T17:49:36;3.47;;;2.10;;
36715;SDS011;22699;51.034;3.730;2022-08-11T17:52:06;5.15;;;2.40;;
36715;SDS011;22699;51.034;3.730;2022-08-11T17:54:52;7.13;;;2.20;;
36715;SDS011;22699;51.034;3.730;2022-08-11T17:57:38;7.88;;;2.25;;
36715;SDS011;22699;51.034;3.730;2022-08-11T18:00:27;4.85;;;2.78;;
36715;SDS011;22699;51.034;3.730;2022-08-11T18:02:55;4.60;;;2.17;;
36715;SDS011;22699;51.034;3.730;2022-08-11T18:05:43;2.97;;;1.80;;
36715;SDS011;22699;51.034;3.730;2022-08-11T18:08:16;4.97;;;2.22;;
36715;SDS011;22699;51.034;3.730;2022-08-11T18:11:05;4.07;;;2.10;;
36715;SDS011;22699;51.034;3.730;2022-08-11T18:13:55;5.38;;;2.35;;
36715;SDS011;22699;51.034;3.730;2022-08-11T18:16:43;4.35;;;2.05;;
36715;SDS011;22699;51.034;3.730;2022-08-11T18:19:27;6.35;;;2.28;;
36715;SDS011;22699;51.034;3.730;2022-08-11T18:22:15;2.85;;;1.92;;
36715;SDS011;22699;51.034;3.730;2022-08-11T18:25:09;4.82;;;2.38;;
36715;SDS011;22699;51.034;3.730;2022-08-11T18:27:56;3.90;;;2.13;;
36715;SDS011;22699;51.034;3.730;2022-08-11T18:30:43;3.17;;;2.00;;
36715;SDS011;22699;51.034;3.730;2022-08-11T18:33:36;7.57;;;2.58;;
36715;SDS011;22699;51.034;3.730;2022-08-11T18:36:26;4.88;;;1.98;;
36715;SDS011;22699;51.034;3.730;2022-08-11T18:39:14;4.85;;;2.10;;
36715;SDS011;22699;51.034;3.730;2022-08-11T18:42:03;6.00;;;2.35;;
36715;SDS011;22699;51.034;3.730;2022-08-11T18:44:52;6.97;;;2.63;;
36715;SDS011;22699;51.034;3.730;2022-08-11T18:47:36;2.85;;;1.92;;
36715;SDS011;22699;51.034;3.730;2022-08-11T18:50:23;4.15;;;2.38;;
36715;SDS011;22699;51.034;3.730;2022-08-11T18:53:09;2.85;;;2.53;;
36715;SDS011;22699;51.034;3.730;2022-08-11T18:55:55;4.75;;;2.83;;
36715;SDS011;22699;51.034;3.730;2022-08-11T18:58:42;5.03;;;2.42;;
36715;SDS011;22699;51.034;3.730;2022-08-11T19:01:32;4.60;;;2.00;;
36715;SDS011;22699;51.034;3.730;2022-08-11T19:04:22;6.68;;;2.53;;
36715;SDS011;22699;51.034;3.730;2022-08-11T19:09:56;4.32;;;2.70;;
36715;SDS011;22699;51.034;3.730;2022-08-11T19:12:42;7.95;;;2.67;;
36715;SDS011;22699;51.034;3.730;2022-08-11T19:15:29;3.38;;;2.55;;
36715;SDS011;22699;51.034;3.730;2022-08-11T19:18:15;4.40;;;2.92;;
36715;SDS011;22699;51.034;3.730;2022-08-11T19:21:02;4.13;;;2.63;;
36715;SDS011;22699;51.034;3.730;2022-08-11T19:23:50;7.32;;;3.00;;
36715;SDS011;22699;51.034;3.730;2022-08-11T19:26:38;6.03;;;2.60;;
36715;SDS011;22699;51.034;3.730;2022-08-11T19:29:23;6.38;;;2.80;;
36715;SDS011;22699;51.034;3.730;2022-08-11T19:32:09;4.90;;;2.70;;
36715;SDS011;22699;51.034;3.730;2022-08-11T19:34:56;5.90;;;2.60;;
36715;SDS011;22699;51.034;3.730;2022-08-11T19:37:43;4.88;;;2.63;;
36715;SDS011;22699;51.034;3.730;2022-08-11T19:40:30;4.10;;;2.90;;
36715;SDS011;22699;51.034;3.730;2022-08-11T19:43:24;4.18;;;2.83;;
36715;SDS011;22699;51.034;3.730;2022-08-11T19:46:11;4.65;;;3.03;;
36715;SDS011;22699;51.034;3.730;2022-08-11T19:48:56;6.72;;;3.00;;
36715;SDS011;22699;51.034;3.730;2022-08-11T19:51:43;6.28;;;2.60;;
36715;SDS011;22699;51.034;3.730;2022-08-11T19:54:31;5.38;;;2.50;;
36715;SDS011;22699;51.034;3.730;2022-08-11T19:57:17;10.70;;;2.83;;
36715;SDS011;22699;51.034;3.730;2022-08-11T20:00:08;5.05;;;3.00;;
36715;SDS011;22699;51.034;3.730;2022-08-11T20:05:48;5.53;;;2.50;;